^^
Station Historical Data
Daily Summary for October 2, 2017 Units:  Metric    English   Both
« Previous Day
Next Day »
Daily Weekly Monthly Yearly Custom
  High: Low: Average:
Temperature: 34.2 °C 15.2 °C 23.6 °C
Dew Point: 3.2 °C -22.3 °C -0.5 °C
Humidity: 37% 2% 23%
Wind Speed: 25.9km/h 0km/h 4km/h
Wind Gust: 29km/h - -
Wind- - WSW
Pressure: 1008 hPa 1002.9 hPa -
Precipitation: 0 mm    
Historical Graphs
 
 
Tabular Data for October 2, 2017
Time Temperature Dew Point Pressure Wind Wind Speed Wind Gust Humidity Rainfall Rate (Hourly) solar Conditions
00:01 22.8 °C 0.6 °C 1007 hPa SSW 6.4 km/h 9.7 km/h 23% 0 mm 0.0 W/m2
00:06 22.7 °C 0.5 °C 1007 hPa SSW 9.7 km/h 11.3 km/h 23% 0 mm 0.0 W/m2
00:15 22.4 °C 0.8 °C 1006.7 hPa SSW 11.1 km/h 14.5 km/h 24% 0 mm 0.0 W/m2
00:25 22.3 °C 0.8 °C 1006.7 hPa SSW 9.7 km/h 9.7 km/h 24% 0 mm 0.0 W/m2
00:30 22.2 °C 0.7 °C 1006.3 hPa SSW 14.3 km/h 16.1 km/h 24% 0 mm 0.0 W/m2
00:36 22.3 °C 0.8 °C 1006.3 hPa SSW 16.3 km/h 16.3 km/h 24% 0 mm 0.0 W/m2
00:44 22.4 °C 0.8 °C 1006.3 hPa SSW 11.1 km/h 12.9 km/h 24% 0 mm 0.0 W/m2
00:49 22.3 °C 0.8 °C 1006.3 hPa SSW 11.1 km/h 11.3 km/h 24% 0 mm 0.0 W/m2
01:00 21.9 °C 0.4 °C 1006.3 hPa SSW 7.9 km/h 9.7 km/h 24% 0 mm 0.0 W/m2
01:11 21.8 °C 0.9 °C 1006.3 hPa SSW 6.4 km/h 8 km/h 25% 0 mm 0.0 W/m2
01:20 21.6 °C 0.7 °C 1006.3 hPa SSW 3.2 km/h 4.8 km/h 25% 0 mm 0.0 W/m2
01:30 21.3 °C 1 °C 1006 hPa Calm     26% 0 mm 0.0 W/m2
01:35 21.1 °C 0.8 °C 1006 hPa Calm     26% 0 mm 0.0 W/m2
01:40 20.9 °C 0.7 °C 1006 hPa Calm     26% 0 mm 0.0 W/m2
01:46 20.7 °C 0.5 °C 1006 hPa Calm     26% 0 mm 0.0 W/m2
01:51 20.4 °C 0.8 °C 1006 hPa Calm     27% 0 mm 0.0 W/m2
01:56 20.3 °C 0.7 °C 1005.6 hPa SSW 6.4 km/h 9.7 km/h 27% 0 mm 0.0 W/m2
02:01 20.3 °C 0.7 °C 1006 hPa SSW 7.9 km/h 8 km/h 27% 0 mm 0.0 W/m2
02:06 20.2 °C 1.1 °C 1005.6 hPa SSW 7.9 km/h 8 km/h 28% 0 mm 0.0 W/m2
02:11 20.2 °C 1.1 °C 1005.6 hPa SSW 7.9 km/h 9.7 km/h 28% 0 mm 0.0 W/m2
02:16 20.2 °C 1.1 °C 1005.6 hPa SSW 1.4 km/h 6.4 km/h 28% 0 mm 0.0 W/m2
02:22 20.1 °C 1 °C 1005.6 hPa Calm     28% 0 mm 0.0 W/m2
02:27 19.9 °C 0.8 °C 1005.6 hPa Calm     28% 0 mm 0.0 W/m2
02:32 19.8 °C 0.8 °C 1005.6 hPa Calm     28% 0 mm 0.0 W/m2
02:37 19.7 °C 0.7 °C 1005.6 hPa Calm     28% 0 mm 0.0 W/m2
02:43 19.5 °C 1 °C 1005.6 hPa Calm     29% 0 mm 0.0 W/m2
02:48 19.4 °C 1.4 °C 1005.6 hPa Calm     30% 0 mm 0.0 W/m2
02:53 19.3 °C 0.8 °C 1005.6 hPa Calm     29% 0 mm 0.0 W/m2
02:58 19.1 °C 1.1 °C 1005.6 hPa Calm     30% 0 mm 0.0 W/m2
03:03 18.9 °C 0.9 °C 1005.6 hPa Calm     30% 0 mm 0.0 W/m2
03:09 18.8 °C 0.9 °C 1005.6 hPa Calm     30% 0 mm 0.0 W/m2
03:14 18.9 °C 0.9 °C 1005.3 hPa Calm     30% 0 mm 0.0 W/m2
03:19 18.9 °C 0.9 °C 1005.3 hPa Calm     30% 0 mm 0.0 W/m2
03:25 18.7 °C 0.8 °C 1005.3 hPa Calm     30% 0 mm 0.0 W/m2
03:30 18.5 °C 0.6 °C 1005.6 hPa Calm     30% 0 mm 0.0 W/m2
03:40 18.2 °C 1.2 °C 1005.3 hPa Calm     32% 0 mm 0.0 W/m2
03:50 18.2 °C 1.2 °C 1005.3 hPa Calm     32% 0 mm 0.0 W/m2
03:56 18.1 °C 1.1 °C 1005.3 hPa Calm     32% 0 mm 0.0 W/m2
04:01 17.9 °C 1 °C 1005.3 hPa Calm     32% 0 mm 0.0 W/m2
04:06 17.8 °C 1.3 °C 1005.3 hPa Calm     33% 0 mm 0.0 W/m2
04:16 17.5 °C 0.6 °C 1005.3 hPa Calm     32% 0 mm 0.0 W/m2
04:21 17.4 °C 0.5 °C 1005.3 hPa Calm     32% 0 mm 0.0 W/m2
04:26 17.4 °C 1 °C 1005 hPa Calm     33% 0 mm 0.0 W/m2
04:32 17.2 °C 1.2 °C 1005 hPa Calm     34% 0 mm 0.0 W/m2
04:37 17.2 °C 1.2 °C 1005 hPa Calm     34% 0 mm 0.0 W/m2
04:42 17 °C 1 °C 1005 hPa Calm     34% 0 mm 0.0 W/m2
04:52 17 °C 1 °C 1005.3 hPa Calm     34% 0 mm 0.0 W/m2
05:02 16.7 °C 0.8 °C 1005.3 hPa Calm     34% 0 mm 0.0 W/m2
05:07 16.6 °C 0.7 °C 1005.3 hPa Calm     34% 0 mm 0.0 W/m2
05:13 16.5 °C 0.6 °C 1005.3 hPa Calm     34% 0 mm 0.0 W/m2
05:23 16.4 °C 0.5 °C 1005.6 hPa Calm     34% 0 mm 0.0 W/m2
05:28 16.4 °C 0.5 °C 1005.6 hPa Calm     34% 0 mm 0.0 W/m2
05:33 16.6 °C 0.7 °C 1005.6 hPa Calm     34% 0 mm 0.0 W/m2
05:39 16.6 °C 0.7 °C 1006 hPa Calm     34% 0 mm 0.0 W/m2
05:49 16.6 °C 0.3 °C 1006.3 hPa Calm     33% 0 mm 0.0 W/m2
05:54 16.5 °C 0.2 °C 1006.3 hPa Calm     33% 0 mm 0.0 W/m2
06:04 16.1 °C -0.2 °C 1006.3 hPa Calm     33% 0 mm 0.0 W/m2
06:09 15.9 °C 0.1 °C 1006.3 hPa Calm     34% 0 mm 0.0 W/m2
06:14 15.8 °C 0 °C 1006.3 hPa Calm     34% 0 mm 0.0 W/m2
06:24 15.5 °C 0.1 °C 1006.3 hPa Calm     35% 0 mm 0.0 W/m2
06:29 15.4 °C 0 °C 1006.3 hPa Calm     35% 0 mm 5.0 W/m2
06:34 15.2 °C 0.2 °C 1006.3 hPa Calm     36% 0 mm 7.0 W/m2
06:40 15.4 °C 0.8 °C 1006.3 hPa Calm     37% 0 mm 12.0 W/m2
06:45 15.9 °C 1.2 °C 1006.3 hPa Calm     37% 0 mm 16.0 W/m2
06:55 16.8 °C 1.6 °C 1006.7 hPa Calm     36% 0 mm 39.0 W/m2
07:00 17.1 °C 1.5 °C 1006.7 hPa Calm     35% 0 mm 51.0 W/m2
08:10 21.5 °C 2.2 °C 1007.7 hPa Calm     28% 0 mm 309.0 W/m2
08:20 22.5 °C 2.6 °C 1007.7 hPa Calm     27% 0 mm 348.0 W/m2
08:32 23.4 °C 1.7 °C 1007.7 hPa Calm     24% 0 mm 378.0 W/m2
08:53 24.5 °C 0.7 °C 1008 hPa SW 7.9 km/h 12.9 km/h 21% 0 mm 450.0 W/m2
09:09 24.6 °C 0.8 °C 1008 hPa WNW 9.7 km/h 22.5 km/h 21% 0 mm 504.0 W/m2
09:23 25.1 °C 1.2 °C 1008 hPa NW 4.7 km/h 22.5 km/h 21% 0 mm 550.0 W/m2
09:31 25.4 °C 0.1 °C 1008 hPa NW 11.1 km/h 20.9 km/h 19% 0 mm 587.0 W/m2
09:51 26.3 °C -0.7 °C 1007.7 hPa NW 6.4 km/h 22.5 km/h 17% 0 mm 649.0 W/m2
10:12 27.2 °C 0 °C 1007.7 hPa NW 14.3 km/h 19.3 km/h 17% 0 mm 703.0 W/m2
10:21 27.8 °C 1.3 °C 1007.7 hPa NW 13 km/h 19.3 km/h 18% 0 mm 724.0 W/m2
10:32 27.9 °C 1.4 °C 1007.3 hPa NW 3.2 km/h 8 km/h 18% 0 mm 751.0 W/m2
10:41 28.2 °C 2.4 °C 1007.3 hPa NW 1.4 km/h 17.7 km/h 19% 0 mm 768.0 W/m2
10:54 28.8 °C 2.1 °C 1007.3 hPa Calm   12.9 km/h 18% 0 mm 788.0 W/m2
11:10 29.1 °C 2.4 °C 1007 hPa NW 14.3 km/h 19.3 km/h 18% 0 mm 821.0 W/m2
12:46 31.6 °C 0.9 °C 1005.6 hPa NNW 19.5 km/h 24.1 km/h 14% 0 mm 863.0 W/m2
13:30 32.6 °C -1.7 °C 1005 hPa North 20.9 km/h 25.7 km/h 11% 0 mm 846.0 W/m2
13:44 32.7 °C -1.6 °C 1004.3 hPa NNW 13 km/h 25.7 km/h 11% 0 mm 826.0 W/m2
14:02 32.7 °C -1.6 °C 1003.9 hPa Calm   11.3 km/h 11% 0 mm 796.0 W/m2
14:16 33.1 °C -4 °C 1003.9 hPa North 14.3 km/h 20.9 km/h 9% 0 mm 796.0 W/m2
14:29 33.4 °C -7.1 °C 1003.6 hPa NW 25.9 km/h 29 km/h 7% 0 mm 752.0 W/m2
14:38 33.3 °C -7.2 °C 1003.6 hPa NW 14.3 km/h 20.9 km/h 7% 0 mm 740.0 W/m2
14:48 33.8 °C -8.8 °C 1003.6 hPa NW 16.3 km/h 25.7 km/h 6% 0 mm 722.0 W/m2
15:31 33.9 °C -17.3 °C 1003.3 hPa WNW 22.7 km/h 22.7 km/h 3% 0 mm 601.0 W/m2
15:46 33.9 °C -22 °C 1003.3 hPa West 20.9 km/h 25.7 km/h 2% 0 mm 534.0 W/m2
16:13 33.4 °C -22.3 °C 1003.3 hPa West 9.7 km/h 17.7 km/h 2% 0 mm 229.0 W/m2
16:29 33.9 °C -22 °C 1002.9 hPa Calm     2% 0 mm 587.0 W/m2
16:49 34.2 °C -21.8 °C 1002.9 hPa West 9.7 km/h 12.9 km/h 2% 0 mm 399.0 W/m2
17:04 33.8 °C -22 °C 1002.9 hPa West 13 km/h 13 km/h 2% 0 mm 195.0 W/m2
17:16 33.5 °C -22.2 °C 1002.9 hPa West 11.1 km/h 11.3 km/h 2% 0 mm 111.0 W/m2
17:26 33.4 °C -22.3 °C 1002.9 hPa West 7.9 km/h 17.7 km/h 2% 0 mm 127.0 W/m2
18:23 30.1 °C -1.3 °C 1003.9 hPa SSW 20.9 km/h 20.9 km/h 13% 0 mm 26.0 W/m2
18:32 29.3 °C -1 °C 1003.9 hPa SSW 19.5 km/h 27.4 km/h 14% 0 mm 16.0 W/m2
18:59 28.2 °C 0.8 °C 1004.6 hPa SW 13 km/h 17.7 km/h 17% 0 mm 0.0 W/m2
19:20 27.5 °C 1.8 °C 1005 hPa SW 9.7 km/h 11.3 km/h 19% 0 mm 0.0 W/m2
19:29 27.3 °C 2.4 °C 1005 hPa SW 6.4 km/h 8 km/h 20% 0 mm 0.0 W/m2
19:34 27.2 °C 2.3 °C 1005 hPa SW 4.7 km/h 11.3 km/h 20% 0 mm 0.0 W/m2
19:40 27 °C 2.1 °C 1005.3 hPa Calm     20% 0 mm 0.0 W/m2
19:49 26.9 °C 2.7 °C 1005.6 hPa Calm     21% 0 mm 0.0 W/m2
19:54 26.8 °C 2.6 °C 1005.6 hPa Calm     21% 0 mm 0.0 W/m2
19:59 26.8 °C 2.6 °C 1005.6 hPa Calm     21% 0 mm 0.0 W/m2
20:04 26.7 °C 3.2 °C 1005.6 hPa Calm     22% 0 mm 0.0 W/m2
20:09 26.7 °C 3.2 °C 1005.6 hPa Calm     22% 0 mm 0.0 W/m2
20:15 26.5 °C 3.1 °C 1005.6 hPa Calm     22% 0 mm 0.0 W/m2
20:20 26.4 °C 3 °C 1005.6 hPa Calm     22% 0 mm 0.0 W/m2
20:25 26.3 °C 2.2 °C 1006 hPa Calm     21% 0 mm 0.0 W/m2
20:36 26.2 °C 1.5 °C 1005.3 hPa Calm     20% 0 mm 0.0 W/m2
20:41 26.3 °C 1.5 °C 1005.6 hPa Calm     20% 0 mm 0.0 W/m2
20:47 26.5 °C 1.7 °C 1005.6 hPa Calm     20% 0 mm 0.0 W/m2
20:53 26.6 °C 3.1 °C 1005.6 hPa SW 11.1 km/h 11.3 km/h 22% 0 mm 0.0 W/m2
21:01 27 °C 1.4 °C 1005.3 hPa SSW 16.3 km/h 16.3 km/h 19% 0 mm 0.0 W/m2
21:12 27.5 °C 1.1 °C 1005.6 hPa SSW 6.4 km/h 9.7 km/h 18% 0 mm 0.0 W/m2
21:17 27.6 °C 1.1 °C 1005.3 hPa Calm     18% 0 mm 0.0 W/m2
21:23 27.7 °C 1.2 °C 1005.3 hPa Calm     18% 0 mm 0.0 W/m2
21:28 27.7 °C 1.2 °C 1005.3 hPa Calm     18% 0 mm 0.0 W/m2
21:37 27.6 °C 1.9 °C 1005.3 hPa Calm     19% 0 mm 0.0 W/m2
21:48 27.6 °C 1.9 °C 1005.3 hPa Calm     19% 0 mm 0.0 W/m2
21:56 27.4 °C 2.5 °C 1005.3 hPa Calm     20% 0 mm 0.0 W/m2
22:22 26.8 °C 2.6 °C 1005.3 hPa Calm     21% 0 mm 0.0 W/m2
22:31 26.4 °C 2.3 °C 1005.6 hPa Calm     21% 0 mm 0.0 W/m2
22:40 26.3 °C 1.5 °C 1005.3 hPa Calm     20% 0 mm 0.0 W/m2
22:49 26.6 °C 1.1 °C 1005.3 hPa Calm     19% 0 mm 0.0 W/m2
22:58 26.3 °C 0.8 °C 1005.3 hPa Calm     19% 0 mm 0.0 W/m2
23:03 26.1 °C 0.7 °C 1005.3 hPa Calm     19% 0 mm 0.0 W/m2
23:09 26 °C 0.6 °C 1005.3 hPa Calm     19% 0 mm 0.0 W/m2
23:18 25.5 °C 0.2 °C 1005.3 hPa Calm     19% 0 mm 0.0 W/m2
23:24 25.3 °C 0 °C 1005.3 hPa Calm     19% 0 mm 0.0 W/m2
23:30 25.1 °C 0.6 °C 1005.3 hPa Calm     20% 0 mm 0.0 W/m2
23:39 25 °C 0.5 °C 1005.6 hPa Calm     20% 0 mm 0.0 W/m2
23:44 24.8 °C 1 °C 1005.6 hPa Calm     21% 0 mm 0.0 W/m2
23:49 24.8 °C 1 °C 1005.6 hPa Calm     21% 0 mm 0.0 W/m2
23:54 24.9 °C -0.3 °C 1005.3 hPa Calm     19% 0 mm 0.0 W/m2
23:59 25.5 °C -0.6 °C 1005.3 hPa Calm     18% 0 mm 0.0 W/m2
Canyon Roadhouse, Fishriver Canyon, Namibia
Compliments of Weather Underground - 2.25 mb